createdAt,value
2023-04-09T00:00:25.616Z,4.5
2023-04-09T00:05:26.750Z,4.5
2023-04-09T00:10:33.184Z,4.3
2023-04-09T00:15:30.700Z,4.6
2023-04-09T00:20:27.831Z,4.6
2023-04-09T00:25:16.800Z,4.8
2023-04-09T00:30:22.903Z,4.8
2023-04-09T00:35:28.956Z,4.4
2023-04-09T00:40:17.899Z,4.5
2023-04-09T00:45:23.417Z,4.8
2023-04-09T00:50:29.491Z,5.1
2023-04-09T00:55:18.553Z,5.4
2023-04-09T01:00:26.197Z,5.2
2023-04-09T01:05:30.808Z,5.2
2023-04-09T01:10:19.735Z,5.2
2023-04-09T01:15:25.908Z,5.1
2023-04-09T01:20:31.964Z,4.8
2023-04-09T01:25:21.023Z,4.8
2023-04-09T01:30:27.042Z,5.1
2023-04-09T01:35:33.116Z,5.2
2023-04-09T01:40:22.965Z,5.6
2023-04-09T01:45:27.856Z,5.5
2023-04-09T01:50:16.999Z,5.3
2023-04-09T01:55:23.499Z,4.8
2023-04-09T02:00:32.782Z,5.0
2023-04-09T02:05:17.357Z,4.9
2023-04-09T02:10:23.440Z,4.9
2023-04-09T02:15:29.531Z,5.2
2023-04-09T02:20:19.487Z,4.7
2023-04-09T02:25:24.643Z,4.9
2023-04-09T02:30:30.656Z,5.0
2023-04-09T02:35:19.849Z,4.5
2023-04-09T02:40:25.390Z,5.0
2023-04-09T02:45:31.528Z,5.4
2023-04-09T02:50:20.566Z,5.1
2023-04-09T02:55:26.645Z,5.1
2023-04-09T03:00:32.737Z,5.1
2023-04-09T03:05:22.031Z,5.2
2023-04-09T03:10:28.158Z,5.3
2023-04-09T03:15:17.135Z,5.4
2023-04-09T03:20:24.135Z,4.8
2023-04-09T03:25:29.353Z,5.0
2023-04-09T03:30:18.298Z,5.4
2023-04-09T03:35:24.406Z,5.2
2023-04-09T03:40:29.793Z,4.7
2023-04-09T03:45:18.816Z,5.1
2023-04-09T03:50:24.884Z,5.1
2023-04-09T03:55:30.918Z,5.4
2023-04-09T04:00:24.601Z,5.1
2023-04-09T04:05:30.179Z,4.9
2023-04-09T04:10:31.371Z,5.4
2023-04-09T04:15:20.767Z,4.9
2023-04-09T04:20:26.530Z,5.0
2023-04-09T04:25:35.290Z,5.1
2023-04-09T04:30:21.593Z,4.9
2023-04-09T04:35:27.697Z,5.2
2023-04-09T04:40:17.219Z,5.4
2023-04-09T04:45:23.074Z,5.3
2023-04-09T04:50:29.135Z,5.3
2023-04-09T04:55:18.452Z,6.0
2023-04-09T05:00:25.780Z,6.2
2023-04-09T05:05:29.629Z,5.6
2023-04-09T05:10:18.567Z,5.2
2023-04-09T05:15:24.794Z,6.3
2023-04-09T05:20:30.829Z,6.1
2023-04-09T05:25:19.901Z,5.4
2023-04-09T05:30:25.967Z,6.1
2023-04-09T05:35:31.957Z,6.0
2023-04-09T05:40:21.571Z,6.0
2023-04-09T05:45:26.510Z,5.8
2023-04-09T05:50:40.668Z,5.7
2023-04-09T05:55:21.450Z,10.6
2023-04-09T06:00:30.628Z,7.0
2023-04-09T06:05:16.688Z,5.4
2023-04-09T06:10:22.893Z,5.3
2023-04-09T06:15:28.992Z,5.9
2023-04-09T06:20:18.072Z,7.1
2023-04-09T06:25:24.058Z,9.9
2023-04-09T06:30:29.995Z,11.1
2023-04-09T06:35:19.015Z,8.2
2023-04-09T06:40:25.683Z,8.9
2023-04-09T06:45:30.698Z,9.3
2023-04-09T06:50:19.589Z,10.4
2023-04-09T06:55:25.707Z,9.7
2023-04-09T07:00:31.916Z,10.4
2023-04-09T07:05:21.060Z,11.7
2023-04-09T07:10:27.319Z,12.0
2023-04-09T07:15:33.150Z,12.5
2023-04-09T07:20:23.518Z,12.7
2023-04-09T07:25:28.320Z,11.7
2023-04-09T07:30:17.369Z,11.4
2023-04-09T07:35:24.356Z,11.0
2023-04-09T07:40:28.965Z,10.3
2023-04-09T07:45:17.842Z,11.5
2023-04-09T07:50:24.037Z,13.5
2023-04-09T07:55:30.126Z,16.3
2023-04-09T08:00:24.196Z,13.1
2023-04-09T08:05:24.553Z,12.8
2023-04-09T08:10:30.538Z,12.5
2023-04-09T08:15:19.454Z,12.1
2023-04-09T08:20:25.577Z,11.4
2023-04-09T08:25:31.720Z,12.2
2023-04-09T08:30:20.662Z,11.2
2023-04-09T08:35:26.707Z,10.8
2023-04-09T08:40:32.487Z,10.7
2023-04-09T08:45:21.554Z,10.8
2023-04-09T08:50:27.601Z,10.5
2023-04-09T08:55:16.511Z,9.8
2023-04-09T09:00:24.370Z,11.5
2023-04-09T09:05:28.920Z,11.1
2023-04-09T09:10:18.021Z,10.4
2023-04-09T09:15:24.146Z,17.5
2023-04-09T09:20:30.259Z,11.5
2023-04-09T09:25:19.220Z,11.3
2023-04-09T09:30:25.332Z,12.2
2023-04-09T09:35:31.440Z,10.1
2023-04-09T09:40:21.301Z,10.3
2023-04-09T09:45:25.953Z,9.1
2023-04-09T09:50:32.125Z,8.8
2023-04-09T09:55:21.176Z,8.8
2023-04-09T10:00:32.520Z,8.5
2023-04-09T10:05:35.769Z,7.2
2023-04-09T10:10:21.418Z,8.2
2023-04-09T10:15:27.455Z,8.1
2023-04-09T10:20:18.440Z,7.1
2023-04-09T10:25:22.638Z,6.3
2023-04-09T10:30:28.557Z,7.3
2023-04-09T10:35:17.585Z,8.3
2023-04-09T10:40:24.787Z,6.8
2023-04-09T10:45:30.306Z,6.6
2023-04-09T10:50:18.582Z,6.6
2023-04-09T10:55:24.721Z,7.1
2023-04-09T11:00:30.946Z,6.5
2023-04-09T11:05:20.049Z,6.7
2023-04-09T11:10:26.144Z,6.9
2023-04-09T11:15:32.427Z,7.1
2023-04-09T11:20:22.583Z,7.7
2023-04-09T11:25:27.255Z,7.7
2023-04-09T11:30:33.297Z,7.9
2023-04-09T11:35:22.275Z,7.8
2023-04-09T11:40:28.826Z,7.9
2023-04-09T11:45:16.773Z,7.9
2023-04-09T11:50:22.858Z,7.6
2023-04-09T11:55:28.943Z,8.6
2023-04-09T12:00:20.880Z,7.8
2023-04-09T12:05:23.174Z,7.6
2023-04-09T12:10:29.956Z,7.5
2023-04-09T12:15:18.246Z,7.1
2023-04-09T12:20:24.882Z,7.4
2023-04-09T12:25:30.427Z,7.2
2023-04-09T12:30:19.589Z,6.8
2023-04-09T12:35:25.686Z,6.7
2023-04-09T12:40:32.124Z,6.9
2023-04-09T12:45:20.939Z,7.3
2023-04-09T12:50:27.026Z,7.3
2023-04-09T12:55:33.090Z,7.2
2023-04-09T13:00:23.913Z,6.9
2023-04-09T13:05:27.488Z,18.8
2023-04-09T13:10:16.619Z,17.9
2023-04-09T13:15:22.424Z,10.9
2023-04-09T13:20:28.692Z,7.1
2023-04-09T13:25:17.750Z,7.6
2023-04-09T13:30:23.755Z,7.3
2023-04-09T13:35:29.672Z,7.6
2023-04-09T13:40:19.898Z,7.2
2023-04-09T13:45:24.592Z,7.8
2023-04-09T13:50:30.807Z,8.1
2023-04-09T13:55:19.847Z,8.1
2023-04-09T14:00:29.915Z,7.6
2023-04-09T14:05:32.149Z,6.9
2023-04-09T14:10:21.029Z,7.0
2023-04-09T14:15:27.116Z,7.1
2023-04-09T14:20:33.300Z,7.5
2023-04-09T14:25:22.192Z,8.1
2023-04-09T14:30:28.358Z,8.2
2023-04-09T14:35:17.391Z,7.3
2023-04-09T14:40:24.668Z,8.2
2023-04-09T14:45:30.704Z,8.2
2023-04-09T14:50:18.155Z,8.3
2023-04-09T14:55:24.264Z,12.5
2023-04-09T15:00:32.254Z,12.1
2023-04-09T15:05:19.647Z,9.7
2023-04-09T15:10:25.855Z,10.0
2023-04-09T15:15:31.837Z,11.5
2023-04-09T15:20:20.890Z,10.1
2023-04-09T15:25:26.965Z,9.5
2023-04-09T15:30:33.034Z,10.6
2023-04-09T15:35:21.994Z,15.0
2023-04-09T15:40:28.199Z,10.5
2023-04-09T15:45:17.086Z,13.1
2023-04-09T15:50:23.268Z,9.8
2023-04-09T15:55:29.347Z,8.1
2023-04-09T16:00:24.856Z,9.4
2023-04-09T16:05:23.833Z,10.2
2023-04-09T16:10:33.385Z,13.7
2023-04-09T16:15:18.730Z,12.5
2023-04-09T16:20:26.413Z,20.4
2023-04-09T16:25:31.054Z,10.5
2023-04-09T16:30:20.044Z,9.6
2023-04-09T16:35:25.983Z,8.7
2023-04-09T16:40:31.898Z,8.0
2023-04-09T16:45:20.902Z,8.5
2023-04-09T16:50:26.831Z,8.0
2023-04-09T16:55:33.085Z,10.0
2023-04-09T17:00:24.216Z,9.1
2023-04-09T17:05:27.436Z,7.7
2023-04-09T17:10:16.453Z,7.3
2023-04-09T17:15:22.546Z,7.5
2023-04-09T17:20:28.794Z,7.6
2023-04-09T17:25:17.625Z,8.1
2023-04-09T17:30:23.797Z,7.6
2023-04-09T17:35:29.765Z,7.8
2023-04-09T17:40:20.529Z,8.2
2023-04-09T17:45:24.359Z,8.4
2023-04-09T17:50:30.327Z,9.0
2023-04-09T17:55:19.450Z,9.1
2023-04-09T18:00:27.828Z,9.0
2023-04-09T18:05:32.053Z,10.9
2023-04-09T18:10:20.756Z,10.1
2023-04-09T18:15:26.638Z,13.0
2023-04-09T18:20:32.888Z,13.7
2023-04-09T18:25:21.894Z,12.9
2023-04-09T18:30:28.105Z,10.3
2023-04-09T18:35:16.862Z,24.1
2023-04-09T18:40:23.282Z,15.7
2023-04-09T18:45:29.088Z,12.5
2023-04-09T18:50:18.252Z,20.9
2023-04-09T18:55:24.213Z,10.3
2023-04-09T19:00:30.454Z,9.4
2023-04-09T19:05:19.203Z,9.2
2023-04-09T19:10:25.300Z,8.9
2023-04-09T19:15:31.258Z,9.7
2023-04-09T19:20:21.778Z,9.0
2023-04-09T19:25:26.320Z,8.9
2023-04-09T19:30:32.696Z,9.6
2023-04-09T19:35:21.467Z,10.6
2023-04-09T19:40:27.553Z,8.7
2023-04-09T19:45:16.467Z,8.8
2023-04-09T19:50:22.494Z,8.8
2023-04-09T19:55:28.576Z,9.0
2023-04-09T20:00:20.589Z,9.2
2023-04-09T20:05:23.847Z,8.9
2023-04-09T20:10:30.035Z,8.5
2023-04-09T20:15:19.089Z,8.9
2023-04-09T20:20:25.403Z,9.2
2023-04-09T20:25:31.218Z,9.7
2023-04-09T20:30:20.228Z,9.3
2023-04-09T20:35:26.433Z,9.6
2023-04-09T20:40:31.574Z,9.5
2023-04-09T20:45:20.615Z,9.0
2023-04-09T20:50:27.498Z,8.6
2023-04-09T20:55:32.792Z,9.1
2023-04-09T21:00:23.326Z,9.6
2023-04-09T21:05:27.767Z,8.9
2023-04-09T21:10:16.697Z,8.7
2023-04-09T21:15:22.861Z,8.6
2023-04-09T21:20:28.819Z,9.4
2023-04-09T21:25:18.041Z,9.0
2023-04-09T21:30:23.947Z,8.5
2023-04-09T21:35:30.183Z,9.4
2023-04-09T21:40:19.232Z,8.8
2023-04-09T21:45:24.370Z,8.7
2023-04-09T21:50:18.634Z,9.0
2023-04-09T21:55:19.442Z,8.8
2023-04-09T22:00:30.972Z,8.5
2023-04-09T22:05:31.749Z,8.6
2023-04-09T22:10:20.790Z,9.0
2023-04-09T22:15:28.704Z,8.8
2023-04-09T22:20:32.905Z,9.5
2023-04-09T22:25:22.077Z,9.2
2023-04-09T22:30:27.966Z,9.8
2023-04-09T22:35:17.104Z,9.7
2023-04-09T22:40:24.019Z,10.0
2023-04-09T22:45:28.192Z,9.8
2023-04-09T22:50:17.298Z,9.5
2023-04-09T22:55:23.264Z,10.1
2023-04-09T23:00:29.586Z,10.0
2023-04-09T23:05:18.777Z,9.5
2023-04-09T23:10:24.896Z,9.8
2023-04-09T23:15:30.914Z,9.3
2023-04-09T23:20:20.806Z,9.6
2023-04-09T23:25:26.049Z,9.8
2023-04-09T23:30:32.168Z,10.1
2023-04-09T23:35:21.056Z,10.3
2023-04-09T23:40:26.676Z,9.3
2023-04-09T23:45:32.733Z,9.3
2023-04-09T23:50:21.739Z,9.4
2023-04-09T23:55:27.955Z,9.4
